createdAt,value
2018-03-25T00:01:12.147Z,54.90
2018-03-25T00:03:41.268Z,55.60
2018-03-25T00:06:10.345Z,55.50
2018-03-25T00:08:43.245Z,55.50
2018-03-25T00:11:11.476Z,55.50
2018-03-25T00:13:39.792Z,54.90
2018-03-25T00:16:08.027Z,54.70
2018-03-25T00:18:36.297Z,55.20
2018-03-25T00:21:04.561Z,55.30
2018-03-25T00:23:32.813Z,55.70
2018-03-25T00:26:01.095Z,56.00
2018-03-25T00:28:29.558Z,55.90
2018-03-25T00:30:57.785Z,55.40
2018-03-25T00:33:27.237Z,55.50
2018-03-25T00:35:59.154Z,55.60
2018-03-25T00:38:27.451Z,55.90
2018-03-25T00:40:56.638Z,55.80
2018-03-25T00:43:25.059Z,55.80
2018-03-25T00:45:53.367Z,55.10
2018-03-25T00:48:23.156Z,55.60
2018-03-25T00:50:52.739Z,55.60
2018-03-25T00:53:23.842Z,55.30
2018-03-25T00:55:52.101Z,55.60
2018-03-25T00:58:20.412Z,55.80
2018-03-25T01:00:49.479Z,56.10
2018-03-25T01:03:17.788Z,56.10
2018-03-25T01:05:46.869Z,56.30
2018-03-25T01:08:15.145Z,56.20
2018-03-25T01:10:44.970Z,56.60
2018-03-25T01:13:13.300Z,56.00
2018-03-25T01:15:53.679Z,56.30
2018-03-25T01:18:21.970Z,56.20
2018-03-25T01:20:51.017Z,55.80
2018-03-25T01:23:19.277Z,55.80
2018-03-25T01:25:47.544Z,56.30
2018-03-25T01:28:15.876Z,56.60
2018-03-25T01:30:44.172Z,56.50
2018-03-25T01:33:12.420Z,56.30
2018-03-25T01:35:40.690Z,57.00
2018-03-25T01:38:08.971Z,56.10
2018-03-25T01:40:37.222Z,56.50
2018-03-25T01:43:05.544Z,56.30
2018-03-25T01:45:34.579Z,57.50
2018-03-25T01:48:02.833Z,56.80
2018-03-25T01:50:31.872Z,56.70
2018-03-25T01:53:01.183Z,56.40
2018-03-25T01:55:29.457Z,56.40
2018-03-25T01:57:57.721Z,56.50
2018-03-25T02:00:25.996Z,56.20
2018-03-25T02:02:54.283Z,56.60
2018-03-25T02:05:22.514Z,56.30
2018-03-25T02:07:50.984Z,56.20
2018-03-25T02:10:19.208Z,56.10
2018-03-25T02:12:47.519Z,56.70
2018-03-25T02:15:15.823Z,56.50
2018-03-25T02:17:44.836Z,56.60
2018-03-25T02:20:13.108Z,56.60
2018-03-25T02:22:41.390Z,57.00
2018-03-25T02:25:09.686Z,56.80
2018-03-25T02:27:38.059Z,56.80
2018-03-25T02:30:06.301Z,57.00
2018-03-25T02:32:34.829Z,57.30
2018-03-25T02:35:03.096Z,57.30
2018-03-25T02:37:31.381Z,57.50
2018-03-25T02:39:59.690Z,57.60
2018-03-25T02:42:28.782Z,57.20
2018-03-25T02:44:57.075Z,57.50
2018-03-25T02:47:25.292Z,57.60
2018-03-25T02:49:53.555Z,57.50
2018-03-25T02:52:22.153Z,57.50
2018-03-25T02:54:50.443Z,57.40
2018-03-25T02:57:18.721Z,57.30
2018-03-25T02:59:48.609Z,57.80
2018-03-25T03:02:16.881Z,57.80
2018-03-25T03:04:45.118Z,57.80
2018-03-25T03:07:14.157Z,57.90
2018-03-25T03:09:43.217Z,57.90
2018-03-25T03:12:11.487Z,57.90
2018-03-25T03:14:40.504Z,58.10
2018-03-25T03:17:08.784Z,58.10
2018-03-25T03:19:37.055Z,58.60
2018-03-25T03:22:05.366Z,58.80
2018-03-25T03:24:33.629Z,58.70
2018-03-25T03:27:01.962Z,58.90
2018-03-25T03:29:31.011Z,59.60
2018-03-25T03:31:59.294Z,59.20
2018-03-25T03:34:27.564Z,59.40
2018-03-25T03:36:55.835Z,60.10
2018-03-25T03:39:24.104Z,59.50
2018-03-25T03:41:52.356Z,59.50
2018-03-25T03:44:20.666Z,59.70
2018-03-25T03:46:48.946Z,59.60
2018-03-25T03:49:17.222Z,59.40
2018-03-25T03:51:45.646Z,59.60
2018-03-25T03:54:13.906Z,59.50
2018-03-25T03:56:43.003Z,59.80
2018-03-25T03:59:12.142Z,60.10
2018-03-25T04:01:41.049Z,60.00
2018-03-25T04:04:09.288Z,59.40
2018-03-25T04:06:37.580Z,59.40
2018-03-25T04:09:05.881Z,59.20
2018-03-25T04:11:34.110Z,59.50
2018-03-25T04:14:02.419Z,59.30
2018-03-25T04:16:30.791Z,59.70
2018-03-25T04:18:59.074Z,59.70
2018-03-25T04:21:27.387Z,59.40
2018-03-25T04:23:55.646Z,59.20
2018-03-25T04:26:23.924Z,59.90
2018-03-25T04:28:52.217Z,60.00
2018-03-25T04:31:22.037Z,60.50
2018-03-25T04:33:50.301Z,60.50
2018-03-25T04:36:18.535Z,60.80
2018-03-25T04:38:46.815Z,60.00
2018-03-25T04:41:15.154Z,60.10
2018-03-25T04:43:44.184Z,61.60
2018-03-25T04:46:12.459Z,60.90
2018-03-25T04:48:40.708Z,61.00
2018-03-25T04:51:08.998Z,60.80
2018-03-25T04:53:37.290Z,60.50
2018-03-25T04:56:05.630Z,60.80
2018-03-25T04:58:33.921Z,60.50
2018-03-25T05:01:02.949Z,60.90
2018-03-25T05:03:31.230Z,60.80
2018-03-25T05:05:59.487Z,60.50
2018-03-25T05:08:27.753Z,61.20
2018-03-25T05:10:56.049Z,60.60
2018-03-25T05:13:24.297Z,61.00
2018-03-25T05:15:52.612Z,61.00
2018-03-25T05:18:20.936Z,60.70
2018-03-25T05:20:49.965Z,61.10
2018-03-25T05:23:18.249Z,61.10
2018-03-25T05:25:46.540Z,60.80
2018-03-25T05:28:14.821Z,60.60
2018-03-25T05:30:43.073Z,60.60
2018-03-25T05:33:11.352Z,60.30
2018-03-25T05:35:40.573Z,60.30
2018-03-25T05:38:08.799Z,59.90
2018-03-25T05:40:37.066Z,60.00
2018-03-25T05:43:05.334Z,59.50
2018-03-25T05:45:33.574Z,59.50
2018-03-25T05:48:01.877Z,59.50
2018-03-25T05:50:30.896Z,59.70
2018-03-25T05:52:59.176Z,59.50
2018-03-25T05:55:27.495Z,59.40
2018-03-25T05:57:55.753Z,59.30
2018-03-25T06:00:24.262Z,58.90
2018-03-25T06:02:52.571Z,59.40
2018-03-25T06:05:21.590Z,59.70
2018-03-25T06:07:49.841Z,59.60
2018-03-25T06:10:18.684Z,59.70
2018-03-25T06:12:46.958Z,60.20
2018-03-25T06:15:15.224Z,59.70
2018-03-25T06:17:43.511Z,59.30
2018-03-25T06:20:11.808Z,60.10
2018-03-25T06:22:40.846Z,60.50
2018-03-25T06:25:09.964Z,60.70
2018-03-25T06:27:38.247Z,60.60
2018-03-25T06:30:06.522Z,60.70
2018-03-25T06:32:34.780Z,60.30
2018-03-25T06:35:03.141Z,60.20
2018-03-25T06:37:31.458Z,60.00
2018-03-25T06:39:59.706Z,59.80
2018-03-25T06:42:28.015Z,60.20
2018-03-25T06:44:56.323Z,60.50
2018-03-25T06:47:25.386Z,60.80
2018-03-25T06:49:55.346Z,60.80
2018-03-25T06:52:23.596Z,60.70
2018-03-25T06:54:52.635Z,59.80
2018-03-25T06:57:21.033Z,59.80
2018-03-25T06:59:49.289Z,59.90
2018-03-25T07:02:17.534Z,59.40
2018-03-25T07:04:46.552Z,59.00
2018-03-25T07:07:15.655Z,59.00
2018-03-25T07:09:43.911Z,59.10
2018-03-25T07:12:12.147Z,60.00
2018-03-25T07:14:41.960Z,59.10
2018-03-25T07:17:11.774Z,59.10
2018-03-25T07:19:40.878Z,58.10
2018-03-25T07:22:09.953Z,58.30
2018-03-25T07:24:39.704Z,58.50
2018-03-25T07:27:08.767Z,58.30
2018-03-25T07:29:37.750Z,58.30
2018-03-25T07:32:06.037Z,58.50
2018-03-25T07:34:34.512Z,56.70
2018-03-25T07:37:02.896Z,57.20
2018-03-25T07:39:31.159Z,57.90
2018-03-25T07:41:59.496Z,58.10
2018-03-25T07:44:27.862Z,58.30
2018-03-25T07:46:56.155Z,58.00
2018-03-25T07:49:24.428Z,57.30
2018-03-25T07:51:52.734Z,56.40
2018-03-25T07:54:20.989Z,56.00
2018-03-25T07:56:49.280Z,55.50
2018-03-25T07:59:17.546Z,55.60
2018-03-25T08:01:45.847Z,56.70
2018-03-25T08:04:14.920Z,55.40
2018-03-25T08:06:43.197Z,55.80
2018-03-25T08:09:11.506Z,55.20
2018-03-25T08:11:39.763Z,55.60
2018-03-25T08:14:08.063Z,54.80
2018-03-25T08:16:36.364Z,54.50
2018-03-25T08:19:05.469Z,53.70
2018-03-25T08:21:33.848Z,53.70
2018-03-25T08:24:02.880Z,52.50
2018-03-25T08:26:31.250Z,52.50
2018-03-25T08:28:59.661Z,53.80
2018-03-25T08:31:27.974Z,53.40
2018-03-25T08:33:57.026Z,52.60
2018-03-25T08:36:26.204Z,52.60
2018-03-25T08:38:54.510Z,53.50
2018-03-25T08:41:22.765Z,52.80
2018-03-25T08:43:51.059Z,51.70
2018-03-25T08:46:19.386Z,53.30
2018-03-25T08:48:47.654Z,51.30
2018-03-25T08:51:15.920Z,51.90
2018-03-25T08:53:44.942Z,52.10
2018-03-25T08:56:13.198Z,52.10
2018-03-25T08:58:41.458Z,52.10
2018-03-25T09:01:10.571Z,50.80
2018-03-25T09:03:38.866Z,50.80
2018-03-25T09:06:07.148Z,51.30
2018-03-25T09:08:35.421Z,51.10
2018-03-25T09:11:03.693Z,49.30
2018-03-25T09:13:32.001Z,49.80
2018-03-25T09:16:00.274Z,49.30
2018-03-25T09:18:28.543Z,50.50
2018-03-25T09:20:57.151Z,49.60
2018-03-25T09:23:25.622Z,49.30
2018-03-25T09:25:53.883Z,51.10
2018-03-25T09:28:22.132Z,50.30
2018-03-25T09:30:50.393Z,50.20
2018-03-25T09:33:18.657Z,50.80
2018-03-25T09:35:47.017Z,50.20
2018-03-25T09:38:16.066Z,50.00
2018-03-25T09:40:44.374Z,49.90
2018-03-25T09:43:12.900Z,50.00
2018-03-25T09:45:41.144Z,50.70
2018-03-25T09:48:10.199Z,50.80
2018-03-25T09:50:38.542Z,50.20
2018-03-25T09:53:06.836Z,49.20
2018-03-25T09:55:35.121Z,50.20
2018-03-25T09:58:03.450Z,49.60
2018-03-25T10:00:37.355Z,49.60
2018-03-25T10:03:12.100Z,49.00
2018-03-25T10:05:41.104Z,49.90
2018-03-25T10:08:09.374Z,49.90
2018-03-25T10:10:37.898Z,49.90
2018-03-25T10:13:06.191Z,49.90
2018-03-25T10:15:34.487Z,49.30
2018-03-25T10:18:03.539Z,49.80
2018-03-25T10:20:31.977Z,49.80
2018-03-25T10:23:01.047Z,50.70
2018-03-25T10:25:29.312Z,50.60
2018-03-25T10:27:57.624Z,50.60
2018-03-25T10:30:25.950Z,49.90
2018-03-25T10:32:54.244Z,50.50
2018-03-25T10:35:22.534Z,50.50
2018-03-25T10:37:50.804Z,50.50
2018-03-25T10:40:19.109Z,50.30
2018-03-25T10:42:48.119Z,50.50
2018-03-25T10:45:16.434Z,50.00
2018-03-25T10:47:45.692Z,50.00
2018-03-25T10:50:14.002Z,50.10
2018-03-25T10:52:45.211Z,49.20
2018-03-25T10:55:13.559Z,50.20
2018-03-25T10:57:42.631Z,50.40
2018-03-25T11:00:10.906Z,50.00
2018-03-25T11:02:39.991Z,50.10
2018-03-25T11:05:08.235Z,50.10
2018-03-25T11:07:36.564Z,50.00
2018-03-25T11:10:04.974Z,49.90
2018-03-25T11:12:33.351Z,49.90
2018-03-25T11:15:01.653Z,50.40
2018-03-25T11:17:33.794Z,50.00
2018-03-25T11:20:02.113Z,49.40
2018-03-25T11:22:30.437Z,50.40
2018-03-25T11:24:59.582Z,47.80
2018-03-25T11:27:28.818Z,47.80
2018-03-25T11:29:57.957Z,47.50
2018-03-25T11:32:27.036Z,47.60
2018-03-25T11:34:57.319Z,48.10
2018-03-25T11:37:25.603Z,48.10
2018-03-25T11:39:53.991Z,49.10
2018-03-25T11:42:23.079Z,49.20
2018-03-25T11:44:52.248Z,50.10
2018-03-25T11:47:20.561Z,49.30
2018-03-25T11:49:49.616Z,49.60
2018-03-25T11:52:17.936Z,49.60
2018-03-25T11:54:47.921Z,50.00
2018-03-25T11:57:16.298Z,50.00
2018-03-25T11:59:45.446Z,48.80
2018-03-25T12:02:13.791Z,48.60
2018-03-25T12:04:42.068Z,49.30
2018-03-25T12:07:11.614Z,50.00
2018-03-25T12:09:40.127Z,50.50
2018-03-25T12:12:08.623Z,50.40
2018-03-25T12:14:36.917Z,51.00
2018-03-25T12:17:06.556Z,50.10
2018-03-25T12:19:34.876Z,50.70
2018-03-25T12:22:05.547Z,51.50
2018-03-25T12:24:33.841Z,52.00
2018-03-25T12:27:02.158Z,53.50
2018-03-25T12:29:30.515Z,54.20
2018-03-25T12:31:58.847Z,53.60
2018-03-25T12:34:28.693Z,54.00
2018-03-25T12:36:56.965Z,54.00
2018-03-25T12:39:25.288Z,53.50
2018-03-25T12:41:53.658Z,54.00
2018-03-25T12:44:21.957Z,53.10
2018-03-25T12:46:50.232Z,53.00
2018-03-25T12:49:19.316Z,53.20
2018-03-25T12:51:47.623Z,53.50
2018-03-25T12:54:16.679Z,52.70
2018-03-25T12:56:46.110Z,52.90
2018-03-25T12:59:15.196Z,54.40
2018-03-25T13:01:44.320Z,53.60
2018-03-25T13:04:13.680Z,53.60
2018-03-25T13:06:41.998Z,53.40
2018-03-25T13:09:11.025Z,51.40
2018-03-25T13:11:39.319Z,51.40
2018-03-25T13:14:08.935Z,52.50
2018-03-25T13:16:37.243Z,52.60
2018-03-25T13:19:06.394Z,51.90
2018-03-25T13:21:34.737Z,51.80
2018-03-25T13:24:03.410Z,51.80
2018-03-25T13:26:31.738Z,52.20
2018-03-25T13:29:00.056Z,52.40
2018-03-25T13:31:29.110Z,51.60
2018-03-25T13:33:57.417Z,51.60
2018-03-25T13:36:26.532Z,52.30
2018-03-25T13:38:55.762Z,52.80
2018-03-25T13:41:24.698Z,52.70
2018-03-25T13:43:54.517Z,52.90
2018-03-25T13:46:26.348Z,52.60
2018-03-25T13:48:54.628Z,52.50
2018-03-25T13:51:25.843Z,51.90
2018-03-25T13:53:54.154Z,52.30
2018-03-25T13:56:22.426Z,52.90
2018-03-25T13:58:50.674Z,52.30
2018-03-25T14:01:18.984Z,53.30
2018-03-25T14:03:48.396Z,52.70
2018-03-25T14:06:17.917Z,52.20
2018-03-25T14:08:46.202Z,52.30
2018-03-25T14:11:14.541Z,52.30
2018-03-25T14:13:42.824Z,52.10
2018-03-25T14:16:11.233Z,51.80
2018-03-25T14:18:41.162Z,52.40
2018-03-25T14:21:09.630Z,52.40
2018-03-25T14:23:38.661Z,52.20
2018-03-25T14:26:08.194Z,52.20
2018-03-25T14:28:36.472Z,52.60
2018-03-25T14:31:04.803Z,52.40
2018-03-25T14:33:33.125Z,52.50
2018-03-25T14:36:03.131Z,53.30
2018-03-25T14:38:31.619Z,53.20
2018-03-25T14:40:59.916Z,52.70
2018-03-25T14:43:30.143Z,53.50
2018-03-25T14:45:58.679Z,53.40
2018-03-25T14:48:27.068Z,53.20
2018-03-25T14:50:55.453Z,54.10
2018-03-25T14:53:23.725Z,53.20
2018-03-25T14:55:53.294Z,52.90
2018-03-25T14:58:21.573Z,52.90
2018-03-25T15:00:49.901Z,53.20
2018-03-25T15:03:18.923Z,53.40
2018-03-25T15:05:47.938Z,53.40
2018-03-25T15:08:16.358Z,53.50
2018-03-25T15:10:44.648Z,55.00
2018-03-25T15:13:13.812Z,54.60
2018-03-25T15:15:42.166Z,53.30
2018-03-25T15:18:11.738Z,54.00
2018-03-25T15:20:40.984Z,54.60
2018-03-25T15:23:09.422Z,54.70
2018-03-25T15:25:37.725Z,54.50
2018-03-25T15:28:06.058Z,55.60
2018-03-25T15:30:34.351Z,55.20
2018-03-25T15:33:04.205Z,55.30
2018-03-25T15:35:32.517Z,55.20
2018-03-25T15:38:04.712Z,54.90
2018-03-25T15:40:32.977Z,55.10
2018-03-25T15:43:01.248Z,54.50
2018-03-25T15:45:29.783Z,54.30
2018-03-25T15:47:58.311Z,55.00
2018-03-25T15:50:26.655Z,55.70
2018-03-25T15:52:55.055Z,55.00
2018-03-25T15:55:24.071Z,55.20
2018-03-25T15:57:53.143Z,55.90
2018-03-25T16:00:21.427Z,55.80
2018-03-25T16:02:49.812Z,55.80
2018-03-25T16:05:19.200Z,56.10
2018-03-25T16:07:47.500Z,56.00
2018-03-25T16:10:15.844Z,56.10
2018-03-25T16:12:44.218Z,56.50
2018-03-25T16:15:13.317Z,56.40
2018-03-25T16:17:41.648Z,56.50
2018-03-25T16:20:09.924Z,56.10
2018-03-25T16:22:38.193Z,56.40
2018-03-25T16:25:07.289Z,56.80
2018-03-25T16:27:35.582Z,56.80
2018-03-25T16:30:04.008Z,57.90
2018-03-25T16:32:32.314Z,57.90
2018-03-25T16:35:01.367Z,58.80
2018-03-25T16:37:29.759Z,58.80
2018-03-25T16:39:58.072Z,59.00
2018-03-25T16:42:27.103Z,59.20
2018-03-25T16:44:55.404Z,59.20
2018-03-25T16:47:23.728Z,59.10
2018-03-25T16:49:52.059Z,59.20
2018-03-25T16:52:21.160Z,59.40
2018-03-25T16:54:49.535Z,59.40
2018-03-25T16:57:17.848Z,59.60
2018-03-25T16:59:46.898Z,60.30
2018-03-25T17:02:15.314Z,60.20
2018-03-25T17:04:44.490Z,60.50
2018-03-25T17:07:12.753Z,60.50
2018-03-25T17:09:41.135Z,60.50
2018-03-25T17:12:09.407Z,60.60
2018-03-25T17:14:39.187Z,60.80
2018-03-25T17:17:07.640Z,60.80
2018-03-25T17:19:35.977Z,61.90
2018-03-25T17:22:05.820Z,61.50
2018-03-25T17:24:34.860Z,61.50
2018-03-25T17:27:03.136Z,61.50
2018-03-25T17:29:32.864Z,61.50
2018-03-25T17:32:01.179Z,61.60
2018-03-25T17:34:30.242Z,61.90
2018-03-25T17:36:59.268Z,61.90
2018-03-25T17:39:28.813Z,61.90
2018-03-25T17:41:57.156Z,62.10
2018-03-25T17:44:27.012Z,62.50
2018-03-25T17:46:56.156Z,62.30
2018-03-25T17:49:24.467Z,62.60
2018-03-25T17:51:52.879Z,62.70
2018-03-25T17:54:21.165Z,62.40
2018-03-25T17:56:49.665Z,62.70
2018-03-25T17:59:20.026Z,62.50
2018-03-25T18:01:48.357Z,62.40
2018-03-25T18:04:17.524Z,63.10
2018-03-25T18:06:46.711Z,63.00
2018-03-25T18:09:15.125Z,62.80
2018-03-25T18:11:44.531Z,63.40
2018-03-25T18:14:13.809Z,63.40
2018-03-25T18:16:42.077Z,63.50
2018-03-25T18:19:10.360Z,63.60
2018-03-25T18:21:38.682Z,64.40
2018-03-25T18:24:07.728Z,65.40
2018-03-25T18:26:36.026Z,65.40
2018-03-25T18:29:05.237Z,66.00
2018-03-25T18:31:33.916Z,66.60
2018-03-25T18:34:02.266Z,67.20
2018-03-25T18:36:31.489Z,67.70
2018-03-25T18:38:59.867Z,67.90
2018-03-25T18:41:28.185Z,68.00
2018-03-25T18:43:56.701Z,68.10
2018-03-25T18:46:25.464Z,68.10
2018-03-25T18:48:53.755Z,68.10
2018-03-25T18:51:22.180Z,68.30
2018-03-25T18:53:51.323Z,68.50
2018-03-25T18:56:19.772Z,68.50
2018-03-25T18:58:48.973Z,68.50
2018-03-25T19:01:17.305Z,68.70
2018-03-25T19:03:45.613Z,68.90
2018-03-25T19:06:14.948Z,68.90
2018-03-25T19:08:43.275Z,69.10
2018-03-25T19:11:11.833Z,69.00
2018-03-25T19:13:41.047Z,69.40
2018-03-25T19:16:09.454Z,69.30
2018-03-25T19:18:38.637Z,69.70
2018-03-25T19:21:08.758Z,69.70
2018-03-25T19:23:37.823Z,69.70
2018-03-25T19:26:06.453Z,70.10
2018-03-25T19:28:38.929Z,70.30
2018-03-25T19:31:08.361Z,71.00
2018-03-25T19:33:37.493Z,70.70
2018-03-25T19:36:06.468Z,70.80
2018-03-25T19:38:34.788Z,70.50
2018-03-25T19:41:03.466Z,70.70
2018-03-25T19:43:31.880Z,71.10
2018-03-25T19:46:00.277Z,71.40
2018-03-25T19:48:28.529Z,71.40
2018-03-25T19:50:56.821Z,71.40
2018-03-25T19:53:25.108Z,71.50
2018-03-25T19:55:53.377Z,71.80
2018-03-25T19:58:22.662Z,71.80
2018-03-25T20:00:51.057Z,72.10
2018-03-25T20:03:20.388Z,72.10
2018-03-25T20:05:49.530Z,72.50
2018-03-25T20:08:17.832Z,72.40
2018-03-25T20:10:46.125Z,72.50
2018-03-25T20:13:14.458Z,72.70
2018-03-25T20:15:42.737Z,72.80
2018-03-25T20:18:11.047Z,72.90
2018-03-25T20:20:39.340Z,73.00
2018-03-25T20:23:07.668Z,73.20
2018-03-25T20:25:35.976Z,73.20
2018-03-25T20:28:04.340Z,73.30
2018-03-25T20:30:32.664Z,73.70
2018-03-25T20:33:00.947Z,73.80
2018-03-25T20:35:30.590Z,73.10
2018-03-25T20:37:58.893Z,73.00
2018-03-25T20:40:27.411Z,73.40
2018-03-25T20:42:56.026Z,73.80
2018-03-25T20:45:24.416Z,73.70
2018-03-25T20:47:52.705Z,73.80
2018-03-25T20:50:20.996Z,73.90
2018-03-25T20:52:49.457Z,73.90
2018-03-25T20:55:17.749Z,74.00
2018-03-25T20:57:46.073Z,74.10
2018-03-25T21:00:14.368Z,74.30
2018-03-25T21:02:42.638Z,74.40
2018-03-25T21:05:10.988Z,74.20
2018-03-25T21:07:39.309Z,73.90
2018-03-25T21:10:07.634Z,74.00
2018-03-25T21:12:35.910Z,73.80
2018-03-25T21:15:04.249Z,73.80
2018-03-25T21:17:32.564Z,74.10
2018-03-25T21:20:00.788Z,74.10
2018-03-25T21:22:29.093Z,73.70
2018-03-25T21:24:57.397Z,73.50
2018-03-25T21:27:25.669Z,73.50
2018-03-25T21:29:53.987Z,73.40
2018-03-25T21:32:22.261Z,73.60
2018-03-25T21:34:50.560Z,73.40
2018-03-25T21:37:18.963Z,73.50
2018-03-25T21:39:47.560Z,73.80
2018-03-25T21:42:17.376Z,74.20
2018-03-25T21:44:45.623Z,74.20
2018-03-25T21:47:13.935Z,74.30
2018-03-25T21:49:43.012Z,74.40
2018-03-25T21:52:11.274Z,74.30
2018-03-25T21:54:39.577Z,74.80
2018-03-25T21:57:07.868Z,74.90
2018-03-25T21:59:37.734Z,74.40
2018-03-25T22:02:06.083Z,74.30
2018-03-25T22:04:34.269Z,74.20
2018-03-25T22:07:02.517Z,74.40
2018-03-25T22:09:32.350Z,74.30
2018-03-25T22:12:00.579Z,74.30
2018-03-25T22:14:28.925Z,73.90
2018-03-25T22:16:57.250Z,74.10
2018-03-25T22:19:26.249Z,73.30
2018-03-25T22:21:56.083Z,73.70
2018-03-25T22:24:24.418Z,73.70
2018-03-25T22:26:53.520Z,73.90
2018-03-25T22:29:21.788Z,73.90
2018-03-25T22:31:50.079Z,74.10
2018-03-25T22:34:22.973Z,74.00
2018-03-25T22:36:51.295Z,73.90
2018-03-25T22:39:19.529Z,74.30
2018-03-25T22:41:48.617Z,73.80
2018-03-25T22:44:17.636Z,74.10
2018-03-25T22:46:45.890Z,73.80
2018-03-25T22:49:14.161Z,73.70
2018-03-25T22:51:44.198Z,74.00
2018-03-25T22:54:12.524Z,74.00
2018-03-25T22:56:40.885Z,74.40
2018-03-25T22:59:09.190Z,74.30
2018-03-25T23:01:37.492Z,74.20
2018-03-25T23:04:07.051Z,74.30
2018-03-25T23:06:35.384Z,74.20
2018-03-25T23:09:03.696Z,74.30
2018-03-25T23:11:32.024Z,74.50
2018-03-25T23:14:01.034Z,74.10
2018-03-25T23:16:29.308Z,74.10
2018-03-25T23:18:57.630Z,74.00
2018-03-25T23:21:25.861Z,74.30
2018-03-25T23:23:54.202Z,74.40
2018-03-25T23:26:24.642Z,74.40
2018-03-25T23:28:54.157Z,74.40
2018-03-25T23:31:24.932Z,74.20
2018-03-25T23:33:53.247Z,74.20
2018-03-25T23:36:22.332Z,75.30
2018-03-25T23:38:53.553Z,74.60
2018-03-25T23:41:21.845Z,74.50
2018-03-25T23:43:50.134Z,74.60
2018-03-25T23:46:20.835Z,75.20
2018-03-25T23:48:49.291Z,75.10
2018-03-25T23:51:19.128Z,75.40
2018-03-25T23:53:47.405Z,75.50
2018-03-25T23:56:15.682Z,75.70
2018-03-25T23:58:43.999Z,75.70
